MMOX

Details ICAO MMOX (OAX)
Name Xoxocotlan Intl
Region Mexico
Timezone America/Mexico_City (UTC-5.0)
Plans Departing 77
Arriving 96
Stats Elevation 4,987 ft / 1,520 m (AMSL)
Location 16.998600° -96.726000°
Runways 1
Magnetic Variation 3.610° E
Sunrise 2019-05-25 11:54:39 UTC / 2019-05-25 06:54:39 Local
Sunset 2019-05-26 00:55:54 UTC / 2019-05-25 19:55:54 Local
Advertisement - Login to hide

Runways

ID Width Length Bearing (true/mag) Surface Threshold Overrun Markings Lighting
01 148 ft / 45 m 8,072 ft / 2,460 m 15.61° / 12.00° ASPHALT 0 ft / 0 m 187 ft / 57 m APP EDGE THRESHOLD SALS
19 148 ft / 45 m 8,072 ft / 2,460 m 195.62° / 192.01° ASPHALT 0 ft / 0 m 187 ft / 57 m APP EDGE THRESHOLD

Map

Weather


0- 5 10 15 20 25 30 35+ Temperature / °C

Clouds and Precipitation
Forecast for 2019-05-25 18:00 UTC. Updated 4 hours ago

Ground ~20,000 ft ~40,000 ft Winds

METAR

MMOX 251848Z 22004KT 10SM SCT030TCU OVC220 27/08 A3016 RMK 8/207

TAF

TAF MMOX 251633Z 2518/2618 09006KT P6SM SCT020 BKN220 FM252100 07012KT P6SM SCT020CB BKN090 TEMPO 2522/2602 5SM TSRA BKN020CB FM260300 03006KT P6SM SCT020 BKN090 BECMG 2605/2606 00000KT SCT090 FM261200 34005KT 5SM HZ SCT080

Frequencies

Tower 118.30 MHz Oaxaca Tower
Approach 121.10 MHz Oaxaca Approach
Warning: Do not use this data for real-world aviation or navigation. No guarantee of current accuracy is given.